Decoded Metar for KMCJ ( in _UNIDENTIFIED) (IATA:N/A) | Meteo·Mobile Aviation Weather
aviador You're here:

KMCJ Decoded Metar

in _UNIDENTIFIED
Report Time2018-08-22 03:15:00
UTC Time2018-08-22 04:29:24
Flight Rules Old
WindVRB at 05 Gusting to 10 kt
Visibility9999 m
Phenomena:N/A
Clouds:N/A
Expected CloudBase > 2,800 ft AGL from Temp-Dew spread
CeilingNone
Temp30°C (ISA +15)
Dew Point23°C (66% RH)
Heat Index34.1°C
QNH1019 hPa
Density Alt2,165 ft
Elevation226 ft
Report Wrong Elevation
Raw Report
KMCJ 220315Z AUTO VRB05G10KT 10SM CLR 30/23 A3009 RMK A01=

Extra information for KMCJ:More info

Metar Taf Metar & Taf Last 4 Metars F.Rules Stats Wind Profile Meteogram Temp Stats Metar ALERT Operation Metar Decoded Social comments